KLRD/LRD METAR and TAF weather

Enter ICAO airport designator
Station Type Date Time Source
KLRD METAR 2020/10/20 16:56 UTC NOAA

KLRD 201656Z 16010KT 10SM BKN030 BKN034 BKN050 29/22 A2996 RMK AO2 SLP142 T02940217


Station Type Date Time Source
KLRD Decoded METAR 2020/10/20 16:56 UTC NOAA

Laredo, Laredo International Airport, TX, United States (KLRD) 27-32-37N 099-27-41W
Oct 20, 2020 - 12:56 PM EDT / 2020.10.20 1656 UTC
Wind: from the SSE (160 degrees) at 12 MPH (10 KT):0
Visibility: 10 mile(s):0
Sky conditions: mostly cloudy
Temperature: 84.9 F (29.4 C)
Dew Point: 71.1 F (21.7 C)
Relative Humidity: 63%
Pressure (altimeter): 29.96 in. Hg (1014 hPa)
ob: KLRD 201656Z 16010KT 10SM BKN030 BKN034 BKN050 29/22 A2996 RMK AO2 SLP142 T02940217
cycle: 17

Station Type Date Time Source
KLRD TAF 2020/10/20 18:36 UTC NOAA

TAF KLRD 201733Z 2018/2118 14011KT P6SM SCT030
FM202300 13013KT P6SM FEW050
FM210900 14008KT P6SM OVC020
FM211600 14010KT P6SM BKN035

Example: see airport list